createdAt,value
2019-02-23T00:02:22.892Z,55.20
2019-02-23T00:04:51.303Z,58.13
2019-02-23T00:07:19.711Z,54.63
2019-02-23T00:09:48.124Z,54.23
2019-02-23T00:12:16.635Z,54.83
2019-02-23T00:14:45.069Z,50.77
2019-02-23T00:17:13.524Z,55.47
2019-02-23T00:19:41.937Z,55.63
2019-02-23T00:22:10.381Z,55.93
2019-02-23T00:24:39.095Z,53.00
2019-02-23T00:27:07.521Z,53.97
2019-02-23T00:29:36.186Z,53.83
2019-02-23T00:32:04.893Z,55.80
2019-02-23T00:34:33.287Z,54.77
2019-02-23T00:37:01.955Z,54.47
2019-02-23T00:39:30.356Z,58.63
2019-02-23T00:41:58.736Z,58.40
2019-02-23T00:44:27.138Z,57.57
2019-02-23T00:46:55.527Z,60.37
2019-02-23T00:49:23.945Z,55.00
2019-02-23T00:51:52.344Z,60.15
2019-02-23T00:54:20.751Z,59.95
2019-02-23T00:56:49.140Z,59.67
2019-02-23T00:59:17.521Z,57.50
2019-02-23T01:01:45.995Z,57.80
2019-02-23T01:04:14.390Z,59.30
2019-02-23T01:06:42.781Z,57.43
2019-02-23T01:09:11.221Z,57.43
2019-02-23T01:11:39.712Z,60.90
2019-02-23T01:14:08.059Z,59.47
2019-02-23T01:16:36.492Z,59.00
2019-02-23T01:19:04.936Z,61.23
2019-02-23T01:21:33.359Z,57.10
2019-02-23T01:24:02.053Z,58.33
2019-02-23T01:26:30.479Z,57.67
2019-02-23T01:28:59.163Z,62.93
2019-02-23T01:31:27.579Z,61.35
2019-02-23T01:33:55.975Z,62.00
2019-02-23T01:36:24.369Z,61.77
2019-02-23T01:38:53.054Z,59.93
2019-02-23T01:41:21.471Z,60.33
2019-02-23T01:43:49.876Z,60.33
2019-02-23T01:46:18.318Z,66.77
2019-02-23T01:48:46.693Z,66.80
2019-02-23T01:51:15.118Z,72.92
2019-02-23T01:53:43.512Z,70.57
2019-02-23T01:56:11.907Z,68.92
2019-02-23T01:58:40.378Z,72.32
2019-02-23T02:01:09.058Z,71.77
2019-02-23T02:03:37.456Z,68.73
2019-02-23T02:06:05.831Z,69.95
2019-02-23T02:08:34.508Z,67.37
2019-02-23T02:11:02.923Z,70.13
2019-02-23T02:13:31.392Z,71.70
2019-02-23T02:15:59.798Z,72.58
2019-02-23T02:18:28.209Z,69.80
2019-02-23T02:20:56.613Z,69.72
2019-02-23T02:23:25.319Z,69.63
2019-02-23T02:25:53.696Z,65.90
2019-02-23T02:28:22.178Z,69.87
2019-02-23T02:30:50.641Z,67.72
2019-02-23T02:33:19.127Z,65.37
2019-02-23T02:35:47.924Z,64.97
2019-02-23T02:38:16.303Z,69.40
2019-02-23T02:40:44.724Z,70.83
2019-02-23T02:43:13.430Z,64.53
2019-02-23T02:45:42.157Z,65.25
2019-02-23T02:48:10.568Z,62.33
2019-02-23T02:50:38.973Z,62.95
2019-02-23T02:53:07.408Z,65.03
2019-02-23T02:55:36.097Z,62.88
2019-02-23T02:58:04.795Z,66.72
2019-02-23T03:00:33.209Z,59.67
2019-02-23T03:03:01.633Z,62.55
2019-02-23T03:05:30.138Z,64.75
2019-02-23T03:07:58.571Z,62.97
2019-02-23T03:10:26.970Z,63.95
2019-02-23T03:12:55.370Z,60.95
2019-02-23T03:15:23.794Z,66.37
2019-02-23T03:17:52.219Z,63.83
2019-02-23T03:20:20.733Z,64.87
2019-02-23T03:22:49.178Z,60.92
2019-02-23T03:25:17.569Z,57.35
2019-02-23T03:27:45.978Z,57.33
2019-02-23T03:30:14.377Z,60.70
2019-02-23T03:32:42.880Z,58.55
2019-02-23T03:35:11.296Z,60.00
2019-02-23T03:37:39.727Z,61.60
2019-02-23T03:40:08.776Z,61.20
2019-02-23T03:42:37.265Z,60.98
2019-02-23T03:45:05.699Z,58.80
2019-02-23T03:47:34.104Z,62.45
2019-02-23T03:50:02.532Z,58.92
2019-02-23T03:52:31.218Z,59.40
2019-02-23T03:54:59.637Z,59.27
2019-02-23T03:57:28.031Z,60.00
2019-02-23T03:59:56.463Z,58.70
2019-02-23T04:02:24.842Z,58.48
2019-02-23T04:04:53.248Z,62.05
2019-02-23T04:07:21.712Z,59.05
2019-02-23T04:09:50.138Z,58.15
2019-02-23T04:12:18.536Z,58.52
2019-02-23T04:14:46.942Z,59.45
2019-02-23T04:17:15.357Z,60.00
2019-02-23T04:19:43.799Z,62.70
2019-02-23T04:22:12.193Z,63.00
2019-02-23T04:24:40.633Z,61.50
2019-02-23T04:27:09.054Z,60.70
2019-02-23T04:29:37.469Z,58.23
2019-02-23T04:32:05.913Z,58.87
2019-02-23T04:34:34.315Z,59.33
2019-02-23T04:37:02.725Z,57.23
2019-02-23T04:39:31.132Z,61.70
2019-02-23T04:41:59.591Z,59.50
2019-02-23T04:44:28.027Z,60.52
2019-02-23T04:46:56.702Z,56.37
2019-02-23T04:49:26.108Z,58.13
2019-02-23T04:51:54.622Z,59.40
2019-02-23T04:54:23.022Z,58.38
2019-02-23T04:56:51.482Z,58.90
2019-02-23T04:59:19.893Z,59.15
2019-02-23T05:01:48.685Z,57.60
2019-02-23T05:04:17.314Z,60.75
2019-02-23T05:06:46.039Z,59.95
2019-02-23T05:09:14.443Z,53.87
2019-02-23T05:11:43.182Z,59.70
2019-02-23T05:14:11.577Z,54.85
2019-02-23T05:16:40.009Z,58.52
2019-02-23T05:19:08.410Z,61.40
2019-02-23T05:21:36.816Z,59.88
2019-02-23T05:24:05.212Z,60.98
2019-02-23T05:26:33.615Z,58.05
2019-02-23T05:29:02.008Z,57.17
2019-02-23T05:31:30.439Z,61.15
2019-02-23T05:33:58.837Z,58.00
2019-02-23T05:36:27.278Z,56.25
2019-02-23T05:38:55.642Z,56.37
2019-02-23T05:41:24.331Z,55.88
2019-02-23T05:43:52.717Z,57.70
2019-02-23T05:46:21.120Z,60.98
2019-02-23T05:48:49.580Z,56.48
2019-02-23T05:51:18.018Z,59.40
2019-02-23T05:53:46.421Z,61.73
2019-02-23T05:56:16.326Z,63.52
2019-02-23T05:58:45.136Z,63.05
2019-02-23T06:01:13.823Z,62.05
2019-02-23T06:03:42.481Z,62.45
2019-02-23T06:06:10.897Z,60.10
2019-02-23T06:08:39.651Z,62.53
2019-02-23T06:11:08.088Z,63.95
2019-02-23T06:13:36.470Z,64.60
2019-02-23T06:16:04.899Z,57.05
2019-02-23T06:18:33.571Z,55.70
2019-02-23T06:21:02.003Z,57.60
2019-02-23T06:23:30.418Z,55.83
2019-02-23T06:25:58.794Z,59.93
2019-02-23T06:28:27.203Z,58.38
2019-02-23T06:30:55.709Z,60.83
2019-02-23T06:33:24.115Z,59.05
2019-02-23T06:35:52.598Z,58.17
2019-02-23T06:38:21.025Z,55.45
2019-02-23T06:40:49.423Z,52.33
2019-02-23T06:43:17.857Z,56.18
2019-02-23T06:45:46.552Z,55.90
2019-02-23T06:48:14.972Z,50.83
2019-02-23T06:50:43.370Z,50.05
2019-02-23T06:53:11.790Z,51.73
2019-02-23T06:55:40.504Z,50.15
2019-02-23T06:58:09.166Z,51.02
2019-02-23T07:00:37.862Z,49.53
2019-02-23T07:03:06.251Z,50.08
2019-02-23T07:05:34.725Z,50.60
2019-02-23T07:08:03.375Z,53.70
2019-02-23T07:10:31.802Z,50.75
2019-02-23T07:13:00.205Z,51.68
2019-02-23T07:15:30.901Z,47.78
2019-02-23T07:17:59.662Z,49.58
2019-02-23T07:20:28.068Z,51.42
2019-02-23T07:22:56.395Z,46.98
2019-02-23T07:25:25.076Z,46.85
2019-02-23T07:27:53.471Z,49.70
2019-02-23T07:30:21.894Z,48.33
2019-02-23T07:32:50.564Z,48.33
2019-02-23T07:35:18.963Z,50.30
2019-02-23T07:37:47.381Z,47.53
2019-02-23T07:40:16.630Z,45.73
2019-02-23T07:42:45.060Z,45.85
2019-02-23T07:45:13.552Z,49.03
2019-02-23T07:47:41.952Z,47.62
2019-02-23T07:50:12.509Z,43.85
2019-02-23T07:52:40.912Z,47.95
2019-02-23T07:55:09.420Z,43.55
2019-02-23T07:57:38.095Z,42.05
2019-02-23T08:00:10.041Z,41.83
2019-02-23T08:02:38.876Z,43.00
2019-02-23T08:05:09.386Z,41.08
2019-02-23T08:07:39.826Z,42.50
2019-02-23T08:10:09.985Z,41.55
2019-02-23T08:12:41.072Z,39.63
2019-02-23T08:15:10.911Z,38.88
2019-02-23T08:17:39.519Z,38.70
2019-02-23T08:20:12.846Z,36.80
2019-02-23T08:22:41.311Z,36.15
2019-02-23T08:25:14.608Z,34.80
2019-02-23T08:27:43.014Z,36.23
2019-02-23T08:30:13.860Z,35.05
2019-02-23T08:32:42.405Z,35.05
2019-02-23T08:35:11.105Z,34.88
2019-02-23T08:37:39.510Z,31.75
2019-02-23T08:40:16.003Z,31.93
2019-02-23T08:42:44.394Z,31.67
2019-02-23T08:45:12.793Z,30.37
2019-02-23T08:47:41.177Z,30.13
2019-02-23T08:50:12.378Z,30.37
2019-02-23T08:52:48.579Z,29.77
2019-02-23T08:55:11.012Z,30.15
2019-02-23T08:57:39.401Z,29.03
2019-02-23T09:00:11.055Z,26.50
2019-02-23T09:02:39.545Z,26.23
2019-02-23T09:05:09.314Z,25.73
2019-02-23T09:07:37.718Z,24.30
2019-02-23T09:10:08.883Z,23.77
2019-02-23T09:12:37.292Z,25.30
2019-02-23T09:15:06.626Z,23.13
2019-02-23T09:17:35.032Z,24.50
2019-02-23T09:20:03.492Z,24.43
2019-02-23T09:22:31.901Z,23.47
2019-02-23T09:25:00.334Z,24.90
2019-02-23T09:27:28.718Z,24.50
2019-02-23T09:29:57.088Z,23.83
2019-02-23T09:32:25.512Z,22.73
2019-02-23T09:34:54.208Z,22.57
2019-02-23T09:37:22.604Z,22.30
2019-02-23T09:39:51.305Z,22.40
2019-02-23T09:42:19.691Z,22.07
2019-02-23T09:44:48.083Z,21.77
2019-02-23T09:47:16.779Z,20.20
2019-02-23T09:49:45.158Z,21.50
2019-02-23T09:52:13.567Z,19.90
2019-02-23T09:54:41.957Z,20.50
2019-02-23T09:57:10.417Z,21.60
2019-02-23T09:59:40.180Z,18.37
2019-02-23T10:02:08.742Z,19.30
2019-02-23T10:04:37.402Z,19.40
2019-02-23T10:07:05.805Z,19.73
2019-02-23T10:09:34.203Z,18.63
2019-02-23T10:12:02.602Z,18.80
2019-02-23T10:14:31.024Z,18.07
2019-02-23T10:16:59.702Z,16.73
2019-02-23T10:19:28.106Z,15.93
2019-02-23T10:21:56.528Z,16.73
2019-02-23T10:24:24.925Z,15.93
2019-02-23T10:26:53.313Z,14.07
2019-02-23T10:29:21.719Z,13.50
2019-02-23T10:31:50.103Z,13.67
2019-02-23T10:34:18.499Z,14.37
2019-02-23T10:36:46.896Z,13.03
2019-02-23T10:39:15.280Z,13.17
2019-02-23T10:41:43.685Z,13.67
2019-02-23T10:44:12.069Z,12.13
2019-02-23T10:46:40.488Z,12.60
2019-02-23T10:49:08.927Z,12.80
2019-02-23T10:51:37.343Z,12.67
2019-02-23T10:54:05.771Z,13.70
2019-02-23T10:56:34.181Z,12.27
2019-02-23T10:59:02.551Z,12.57
2019-02-23T11:01:30.929Z,13.47
2019-02-23T11:03:59.339Z,13.27
2019-02-23T11:06:27.700Z,13.77
2019-02-23T11:08:56.122Z,14.33
2019-02-23T11:11:24.777Z,12.97
2019-02-23T11:13:53.314Z,13.83
2019-02-23T11:16:21.732Z,13.33
2019-02-23T11:18:50.141Z,13.37
2019-02-23T11:21:18.550Z,13.20
2019-02-23T11:23:46.930Z,12.70
2019-02-23T11:26:16.981Z,13.80
2019-02-23T11:31:09.475Z,13.60
2019-02-23T11:33:37.847Z,13.03
2019-02-23T11:36:06.273Z,12.07
2019-02-23T11:38:34.748Z,12.00
2019-02-23T11:41:03.116Z,11.60
2019-02-23T11:43:31.801Z,11.43
2019-02-23T11:46:00.221Z,12.53
2019-02-23T11:48:28.586Z,12.53
2019-02-23T11:50:57.058Z,12.43
2019-02-23T11:53:25.467Z,12.47
2019-02-23T11:55:53.928Z,10.97
2019-02-23T11:58:22.311Z,10.93
2019-02-23T12:00:50.693Z,10.60
2019-02-23T12:03:19.087Z,11.77
2019-02-23T12:05:47.467Z,10.47
2019-02-23T12:08:15.841Z,10.53
2019-02-23T12:10:44.259Z,10.83
2019-02-23T12:13:12.650Z,10.90
2019-02-23T12:15:41.058Z,11.43
2019-02-23T12:18:09.453Z,10.70
2019-02-23T12:20:37.883Z,10.40
2019-02-23T12:23:06.552Z,10.37
2019-02-23T12:25:34.988Z,10.37
2019-02-23T12:28:03.356Z,11.10
2019-02-23T12:30:32.797Z,10.37
2019-02-23T12:33:01.369Z,10.63
2019-02-23T12:35:29.846Z,10.10
2019-02-23T12:37:58.251Z,9.27
2019-02-23T12:40:26.627Z,9.23
2019-02-23T12:42:55.041Z,9.30
2019-02-23T12:45:23.449Z,9.97
2019-02-23T12:47:51.887Z,10.30
2019-02-23T12:50:20.411Z,11.17
2019-02-23T12:52:48.831Z,12.83
2019-02-23T12:55:17.239Z,12.80
2019-02-23T12:57:45.626Z,13.37
2019-02-23T13:00:15.676Z,13.37
2019-02-23T13:02:44.072Z,12.20
2019-02-23T13:05:13.068Z,10.20
2019-02-23T13:07:41.563Z,9.73
2019-02-23T13:10:11.563Z,9.43
2019-02-23T13:12:52.004Z,8.90
2019-02-23T13:15:26.599Z,7.90
2019-02-23T13:18:04.176Z,8.53
2019-02-23T13:20:41.711Z,7.93
2019-02-23T13:23:21.710Z,8.47
2019-02-23T13:26:09.599Z,8.47
2019-02-23T13:28:50.158Z,8.17
2019-02-23T13:31:30.861Z,7.73
2019-02-23T13:34:20.170Z,7.40
2019-02-23T13:37:03.689Z,8.63
2019-02-23T13:39:50.193Z,8.60
2019-02-23T13:42:33.653Z,8.23
2019-02-23T13:45:17.012Z,8.60
2019-02-23T13:47:57.400Z,8.10
2019-02-23T13:50:31.717Z,8.67
2019-02-23T13:53:11.946Z,8.63
2019-02-23T13:55:58.453Z,9.03
2019-02-23T13:58:35.828Z,9.00
2019-02-23T14:01:13.183Z,8.67
2019-02-23T14:03:53.706Z,8.27
2019-02-23T14:06:31.316Z,9.03
2019-02-23T14:09:31.142Z,9.90
2019-02-23T14:12:14.527Z,9.23
2019-02-23T14:14:46.201Z,9.00
2019-02-23T14:17:26.235Z,9.47
2019-02-23T14:20:06.918Z,8.90
2019-02-23T14:22:50.175Z,9.83
2019-02-23T14:25:47.235Z,9.83
2019-02-23T14:28:44.286Z,9.33
2019-02-23T14:31:30.610Z,9.70
2019-02-23T14:34:05.085Z,9.20
2019-02-23T14:36:42.341Z,10.40
2019-02-23T14:39:46.687Z,9.77
2019-02-23T14:42:18.350Z,9.80
2019-02-23T14:45:01.757Z,10.13
2019-02-23T14:47:49.826Z,10.17
2019-02-23T14:50:33.047Z,9.73
2019-02-23T14:53:24.127Z,10.27
2019-02-23T14:55:58.698Z,9.77
2019-02-23T14:58:56.060Z,9.73
2019-02-23T15:01:30.737Z,9.67
2019-02-23T15:04:05.619Z,8.80
2019-02-23T15:06:46.472Z,8.97
2019-02-23T15:09:29.788Z,9.53
2019-02-23T15:12:12.904Z,8.70
2019-02-23T15:15:07.047Z,8.57
2019-02-23T15:17:44.522Z,7.60
2019-02-23T15:20:22.201Z,8.03
2019-02-23T15:23:13.269Z,8.50
2019-02-23T15:26:02.529Z,8.67
2019-02-23T15:28:42.840Z,9.03
2019-02-23T15:31:29.552Z,8.27
2019-02-23T15:34:37.208Z,7.60
2019-02-23T15:37:11.771Z,8.33
2019-02-23T15:40:01.236Z,8.47
2019-02-23T15:42:38.833Z,8.17
2019-02-23T15:45:28.631Z,8.63
2019-02-23T15:48:12.249Z,8.00
2019-02-23T15:50:40.953Z,8.13
2019-02-23T15:53:09.620Z,8.13
2019-02-23T15:55:38.040Z,9.13
2019-02-23T15:58:06.471Z,8.53
2019-02-23T16:00:35.161Z,9.43
2019-02-23T16:03:03.575Z,9.07
2019-02-23T16:05:31.979Z,8.50
2019-02-23T16:08:00.424Z,8.63
2019-02-23T16:10:28.868Z,9.60
2019-02-23T16:12:57.238Z,9.27
2019-02-23T16:15:25.932Z,9.17
2019-02-23T16:17:54.319Z,8.93
2019-02-23T16:20:22.718Z,9.60
2019-02-23T16:22:51.085Z,9.47
2019-02-23T16:25:19.533Z,8.87
2019-02-23T16:27:47.887Z,9.07
2019-02-23T16:30:16.298Z,8.67
2019-02-23T16:32:44.606Z,9.40
2019-02-23T16:35:13.307Z,10.00
2019-02-23T16:37:41.700Z,9.60
2019-02-23T16:40:10.117Z,10.13
2019-02-23T16:42:38.524Z,8.90
2019-02-23T16:45:08.940Z,9.83
2019-02-23T16:47:37.368Z,9.80
2019-02-23T16:50:07.651Z,9.90
2019-02-23T16:52:36.010Z,9.70
2019-02-23T16:55:04.414Z,10.50
2019-02-23T16:57:33.108Z,9.20
2019-02-23T17:00:01.491Z,10.40
2019-02-23T17:02:29.874Z,9.80
2019-02-23T17:04:58.321Z,10.33
2019-02-23T17:07:26.699Z,11.13
2019-02-23T17:09:56.151Z,11.33
2019-02-23T17:12:24.539Z,10.40
2019-02-23T17:14:52.953Z,12.50
2019-02-23T17:17:21.402Z,9.97
2019-02-23T17:19:49.813Z,11.00
2019-02-23T17:22:18.503Z,11.63
2019-02-23T17:24:46.882Z,13.13
2019-02-23T17:27:15.285Z,12.20
2019-02-23T17:29:43.682Z,11.43
2019-02-23T17:32:12.134Z,12.00
2019-02-23T17:34:40.475Z,11.63
2019-02-23T17:37:08.877Z,12.20
2019-02-23T17:39:37.261Z,12.07
2019-02-23T17:42:05.678Z,13.07
2019-02-23T17:44:34.066Z,11.67
2019-02-23T17:47:02.481Z,12.00
2019-02-23T17:49:30.962Z,12.83
2019-02-23T17:51:59.356Z,12.87
2019-02-23T17:54:27.758Z,12.83
2019-02-23T17:56:56.166Z,13.10
2019-02-23T17:59:24.629Z,13.53
2019-02-23T18:01:53.017Z,13.23
2019-02-23T18:04:21.418Z,13.67
2019-02-23T18:06:49.925Z,14.13
2019-02-23T18:09:18.355Z,14.23
2019-02-23T18:11:46.825Z,14.60
2019-02-23T18:14:15.470Z,14.77
2019-02-23T18:16:44.226Z,15.57
2019-02-23T18:19:12.789Z,15.40
2019-02-23T18:21:41.195Z,15.27
2019-02-23T18:24:09.659Z,15.00
2019-02-23T18:26:38.069Z,16.27
2019-02-23T18:29:07.740Z,15.30
2019-02-23T18:31:36.221Z,16.00
2019-02-23T18:34:04.624Z,16.33
2019-02-23T18:36:33.040Z,15.80
2019-02-23T18:39:01.484Z,15.43
2019-02-23T18:41:29.936Z,16.93
2019-02-23T18:43:58.347Z,15.37
2019-02-23T18:46:26.770Z,18.27
2019-02-23T18:48:55.231Z,16.87
2019-02-23T18:51:23.612Z,18.07
2019-02-23T18:53:53.675Z,18.53
2019-02-23T18:56:29.389Z,15.77
2019-02-23T18:58:52.118Z,17.23
2019-02-23T19:01:20.514Z,17.13
2019-02-23T19:03:49.268Z,16.83
2019-02-23T19:06:17.665Z,17.47
2019-02-23T19:08:47.403Z,16.27
2019-02-23T19:11:15.822Z,18.13
2019-02-23T19:13:44.236Z,17.77
2019-02-23T19:16:12.623Z,18.00
2019-02-23T19:18:41.035Z,18.90
2019-02-23T19:21:09.727Z,18.37
2019-02-23T19:23:38.198Z,18.00
2019-02-23T19:26:06.609Z,18.63
2019-02-23T19:28:42.896Z,18.43
2019-02-23T19:31:05.105Z,18.93
2019-02-23T19:33:33.799Z,16.80
2019-02-23T19:36:02.489Z,17.70
2019-02-23T19:38:30.892Z,17.80
2019-02-23T19:40:59.330Z,18.70
2019-02-23T19:43:27.693Z,19.00
2019-02-23T19:45:56.100Z,17.77
2019-02-23T19:48:24.558Z,17.97
2019-02-23T19:50:56.138Z,17.63
2019-02-23T19:53:24.583Z,18.77
2019-02-23T19:55:52.999Z,18.83
2019-02-23T19:58:21.395Z,19.03
2019-02-23T20:00:49.776Z,19.00
2019-02-23T20:03:18.190Z,19.23
2019-02-23T20:05:46.625Z,20.40
2019-02-23T20:08:15.143Z,19.90
2019-02-23T20:10:43.522Z,18.63
2019-02-23T20:13:11.924Z,19.73
2019-02-23T20:15:41.157Z,19.47
2019-02-23T20:18:09.558Z,20.67
2019-02-23T20:20:38.003Z,20.60
2019-02-23T20:23:06.409Z,21.20
2019-02-23T20:25:34.850Z,21.70
2019-02-23T20:28:03.302Z,21.13
2019-02-23T20:30:31.741Z,22.70
2019-02-23T20:33:00.120Z,21.97
2019-02-23T20:35:28.898Z,22.77
2019-02-23T20:37:57.268Z,23.17
2019-02-23T20:40:25.705Z,23.23
2019-02-23T20:42:54.107Z,22.43
2019-02-23T20:45:22.486Z,21.33
2019-02-23T20:47:50.890Z,22.23
2019-02-23T20:50:19.277Z,21.80
2019-02-23T20:52:47.699Z,21.43
2019-02-23T20:55:16.108Z,20.63
2019-02-23T20:57:44.784Z,20.80
2019-02-23T21:00:13.222Z,20.40
2019-02-23T21:02:41.654Z,20.30
2019-02-23T21:05:12.706Z,20.40
2019-02-23T21:07:41.158Z,21.27
2019-02-23T21:10:10.261Z,22.20
2019-02-23T21:12:38.654Z,20.43
2019-02-23T21:15:09.485Z,20.80
2019-02-23T21:17:37.873Z,21.27
2019-02-23T21:20:08.345Z,21.37
2019-02-23T21:22:36.728Z,21.80
2019-02-23T21:25:06.982Z,22.30
2019-02-23T21:27:35.501Z,23.10
2019-02-23T21:30:04.822Z,24.53
2019-02-23T21:32:33.558Z,23.80
2019-02-23T21:35:02.246Z,24.13
2019-02-23T21:37:30.606Z,25.17
2019-02-23T21:39:59.047Z,25.00
2019-02-23T21:42:27.451Z,25.23
2019-02-23T21:44:55.834Z,25.50
2019-02-23T21:47:24.245Z,24.47
2019-02-23T21:49:52.656Z,24.67
2019-02-23T21:52:21.059Z,24.00
2019-02-23T21:54:49.494Z,24.90
2019-02-23T21:57:22.176Z,23.20
2019-02-23T21:59:47.924Z,22.70
2019-02-23T22:02:16.591Z,23.63
2019-02-23T22:04:45.002Z,23.47
2019-02-23T22:07:13.426Z,21.77
2019-02-23T22:09:42.014Z,23.20
2019-02-23T22:12:10.453Z,22.07
2019-02-23T22:14:39.172Z,22.27
2019-02-23T22:17:07.596Z,22.47
2019-02-23T22:19:36.008Z,20.77
2019-02-23T22:22:04.426Z,22.63
2019-02-23T22:24:32.834Z,23.17
2019-02-23T22:27:01.515Z,22.93
2019-02-23T22:29:29.918Z,22.85
2019-02-23T22:31:58.360Z,23.12
2019-02-23T22:34:26.727Z,23.07
2019-02-23T22:36:55.134Z,24.23
2019-02-23T22:39:23.543Z,23.57
2019-02-23T22:41:52.009Z,24.30
2019-02-23T22:44:20.445Z,25.45
2019-02-23T22:46:48.832Z,23.47
2019-02-23T22:49:17.243Z,25.85
2019-02-23T22:51:45.633Z,24.77
2019-02-23T22:54:14.064Z,25.48
2019-02-23T22:56:42.448Z,26.50
2019-02-23T22:59:10.855Z,26.30
2019-02-23T23:01:39.435Z,25.60
2019-02-23T23:04:07.918Z,25.72
2019-02-23T23:06:36.317Z,26.00
2019-02-23T23:09:06.700Z,26.33
2019-02-23T23:11:35.096Z,26.90
2019-02-23T23:14:03.465Z,27.07
2019-02-23T23:16:31.871Z,27.22
2019-02-23T23:19:00.286Z,28.02
2019-02-23T23:21:28.686Z,28.25
2019-02-23T23:23:57.205Z,29.40
2019-02-23T23:26:25.616Z,28.85
2019-02-23T23:28:54.028Z,29.18
2019-02-23T23:31:22.420Z,28.38
2019-02-23T23:33:50.836Z,28.47
2019-02-23T23:36:19.237Z,28.52
2019-02-23T23:38:47.669Z,28.52
2019-02-23T23:41:16.062Z,28.35
2019-02-23T23:43:44.502Z,29.77
2019-02-23T23:46:12.911Z,28.47
2019-02-23T23:48:41.689Z,27.07
2019-02-23T23:51:10.098Z,28.52
2019-02-23T23:53:38.550Z,27.65
2019-02-23T23:56:06.944Z,27.93
2019-02-23T23:58:35.389Z,29.45
